createdAt,value
2022-11-01T00:01:30.721Z,10.59
2022-11-01T00:05:34.140Z,10.60
2022-11-01T00:09:38.833Z,10.60
2022-11-01T00:13:41.927Z,10.57
2022-11-01T00:17:44.989Z,10.54
2022-11-01T00:21:49.110Z,10.57
2022-11-01T00:25:54.240Z,10.56
2022-11-01T00:29:57.274Z,10.54
2022-11-01T00:34:03.795Z,10.49
2022-11-01T00:38:07.073Z,10.44
2022-11-01T00:42:13.225Z,10.42
2022-11-01T00:46:16.902Z,10.41
2022-11-01T00:50:20.601Z,10.44
2022-11-01T00:54:24.151Z,10.49
2022-11-01T00:58:28.827Z,10.44
2022-11-01T01:02:32.105Z,10.43
2022-11-01T01:06:35.204Z,10.43
2022-11-01T01:10:38.484Z,10.43
2022-11-01T01:14:43.729Z,10.43
2022-11-01T01:18:47.299Z,10.43
2022-11-01T01:22:50.490Z,10.43
2022-11-01T01:26:53.648Z,10.42
2022-11-01T01:30:58.254Z,10.42
2022-11-01T01:35:02.268Z,10.42
2022-11-01T01:39:05.584Z,10.47
2022-11-01T01:43:12.565Z,10.51
2022-11-01T01:47:23.001Z,10.51
2022-11-01T01:51:30.072Z,10.52
2022-11-01T01:55:39.392Z,10.52
2022-11-01T01:59:42.458Z,10.54
2022-11-01T02:03:48.794Z,10.55
2022-11-01T02:07:52.627Z,10.53
2022-11-01T02:11:55.988Z,10.52
2022-11-01T02:16:21.273Z,10.53
2022-11-01T02:20:43.920Z,10.54
2022-11-01T02:25:11.377Z,10.57
2022-11-01T02:29:29.311Z,10.60
2022-11-01T02:33:39.423Z,10.59
2022-11-01T02:37:51.768Z,10.63
2022-11-01T02:42:02.747Z,10.69
2022-11-01T02:46:21.246Z,10.73
2022-11-01T02:50:27.016Z,10.74
2022-11-01T02:54:34.752Z,10.72
2022-11-01T02:58:38.541Z,10.74
2022-11-01T03:02:44.466Z,10.74
2022-11-01T03:06:54.016Z,10.77
2022-11-01T03:11:08.096Z,10.78
2022-11-01T03:15:21.083Z,10.77
2022-11-01T03:19:39.182Z,10.74
2022-11-01T03:23:51.091Z,10.79
2022-11-01T03:27:55.836Z,10.78
2022-11-01T03:32:01.061Z,10.78
2022-11-01T03:36:13.469Z,10.74
2022-11-01T03:40:20.134Z,10.78
2022-11-01T03:44:23.602Z,10.78
2022-11-01T03:48:26.713Z,10.77
2022-11-01T03:52:29.715Z,10.78
2022-11-01T03:56:34.460Z,10.80
2022-11-01T04:00:39.955Z,10.81
2022-11-01T04:04:43.291Z,10.79
2022-11-01T04:08:46.380Z,10.80
2022-11-01T04:12:51.589Z,10.81
2022-11-01T04:17:20.474Z,10.83
2022-11-01T04:21:26.583Z,10.82
2022-11-01T04:25:30.251Z,10.82
2022-11-01T04:29:34.833Z,10.82
2022-11-01T04:33:38.171Z,10.82
2022-11-01T04:37:41.226Z,10.81
2022-11-01T04:41:44.332Z,10.81
2022-11-01T04:45:55.097Z,10.84
2022-11-01T04:49:58.110Z,10.86
2022-11-01T04:54:01.109Z,10.87
2022-11-01T04:58:06.659Z,10.87
2022-11-01T05:02:11.213Z,10.87
2022-11-01T05:06:14.237Z,10.84
2022-11-01T05:10:17.400Z,10.82
2022-11-01T05:14:20.442Z,10.81
2022-11-01T05:18:24.924Z,10.84
2022-11-01T05:22:28.047Z,10.89
2022-11-01T05:26:31.097Z,10.91
2022-11-01T05:30:34.219Z,10.95
2022-11-01T05:34:38.709Z,10.95
2022-11-01T05:38:41.744Z,10.94
2022-11-01T05:42:44.983Z,10.96
2022-11-01T05:46:48.176Z,11.00
2022-11-01T05:50:52.705Z,11.01
2022-11-01T05:54:55.699Z,11.05
2022-11-01T05:58:58.738Z,11.06
2022-11-01T06:03:02.343Z,11.06
2022-11-01T06:07:07.007Z,11.08
2022-11-01T06:11:11.441Z,11.05
2022-11-01T06:15:14.549Z,11.06
2022-11-01T06:19:17.650Z,11.06
2022-11-01T06:23:22.082Z,11.07
2022-11-01T06:27:25.173Z,11.08
2022-11-01T06:31:28.201Z,11.10
2022-11-01T06:35:31.290Z,11.12
2022-11-01T06:39:36.721Z,11.13
2022-11-01T06:43:40.315Z,11.13
2022-11-01T06:47:48.211Z,11.14
2022-11-01T06:51:51.290Z,11.18
2022-11-01T06:55:55.685Z,11.16
2022-11-01T06:59:58.731Z,11.19
2022-11-01T07:04:01.883Z,11.20
2022-11-01T07:08:07.010Z,11.21
2022-11-01T07:12:11.426Z,11.23
2022-11-01T07:16:14.822Z,11.25
2022-11-01T07:20:17.821Z,11.27
2022-11-01T07:24:21.084Z,11.25
2022-11-01T07:28:26.161Z,11.21
2022-11-01T07:32:29.170Z,11.18
2022-11-01T07:36:32.237Z,11.15
2022-11-01T07:40:35.219Z,11.17
2022-11-01T07:44:39.639Z,11.21
2022-11-01T07:48:42.744Z,11.25
2022-11-01T07:52:45.979Z,11.26
2022-11-01T07:56:49.339Z,11.28
2022-11-01T08:00:53.903Z,11.30
2022-11-01T08:04:57.096Z,11.28
2022-11-01T08:09:00.075Z,11.28
2022-11-01T08:13:04.784Z,11.32
2022-11-01T08:17:09.911Z,11.33
2022-11-01T08:21:18.690Z,11.33
2022-11-01T08:25:22.337Z,11.37
2022-11-01T08:29:25.331Z,11.38
2022-11-01T08:33:29.768Z,11.41
2022-11-01T08:37:32.885Z,11.44
2022-11-01T08:41:37.425Z,11.48
2022-11-01T08:45:40.843Z,11.50
2022-11-01T08:49:45.791Z,11.49
2022-11-01T08:53:48.792Z,11.46
2022-11-01T08:57:52.357Z,11.42
2022-11-01T09:01:55.618Z,11.42
2022-11-01T09:06:00.269Z,11.45
2022-11-01T09:10:03.496Z,11.46
2022-11-01T09:14:06.524Z,11.48
2022-11-01T09:18:09.764Z,11.46
2022-11-01T09:22:14.566Z,11.43
2022-11-01T09:26:17.721Z,11.45
2022-11-01T09:30:21.499Z,11.47
2022-11-01T09:34:24.505Z,11.52
2022-11-01T09:38:29.105Z,11.62
2022-11-01T09:42:36.008Z,11.79
2022-11-01T09:46:45.312Z,11.90
2022-11-01T09:50:48.630Z,11.93
2022-11-01T09:54:53.329Z,11.92
2022-11-01T09:59:04.561Z,11.89
2022-11-01T10:03:28.816Z,11.91
2022-11-01T10:07:43.082Z,11.93
2022-11-01T10:12:04.761Z,11.92
2022-11-01T10:16:16.201Z,11.92
2022-11-01T10:20:21.592Z,11.93
2022-11-01T10:24:31.138Z,11.94
2022-11-01T10:28:45.953Z,11.96
2022-11-01T10:32:52.950Z,11.98
2022-11-01T10:37:02.559Z,12.02
2022-11-01T10:41:18.528Z,12.05
2022-11-01T10:45:23.706Z,12.05
2022-11-01T10:50:00.163Z,12.07
2022-11-01T10:53:59.989Z,12.12
2022-11-01T10:58:07.954Z,12.16
2022-11-01T11:02:19.395Z,12.15
2022-11-01T11:06:22.769Z,12.10
2022-11-01T11:10:28.014Z,12.10
2022-11-01T11:14:33.889Z,12.13
2022-11-01T11:18:42.380Z,12.16
2022-11-01T11:22:45.382Z,12.17
2022-11-01T11:26:54.249Z,12.20
2022-11-01T11:30:59.083Z,12.21
2022-11-01T11:35:08.845Z,12.25
2022-11-01T11:39:25.229Z,12.29
2022-11-01T11:43:34.266Z,12.36
2022-11-01T11:47:38.633Z,12.42
2022-11-01T11:51:43.129Z,12.49
2022-11-01T11:55:49.298Z,12.50
2022-11-01T11:59:55.439Z,12.51
2022-11-01T12:04:00.754Z,12.52
2022-11-01T12:08:06.227Z,12.49
2022-11-01T12:12:17.220Z,12.47
2022-11-01T12:16:24.463Z,12.52
2022-11-01T12:20:36.623Z,12.55
2022-11-01T12:24:45.235Z,12.55
2022-11-01T12:28:54.710Z,12.59
2022-11-01T12:33:00.051Z,12.63
2022-11-01T12:37:08.194Z,12.61
2022-11-01T12:41:28.876Z,12.63
2022-11-01T12:45:37.742Z,12.61
2022-11-01T12:49:48.446Z,12.62
2022-11-01T12:53:56.276Z,12.67
2022-11-01T12:58:01.013Z,12.71
2022-11-01T13:02:20.842Z,12.73
2022-11-01T13:06:51.114Z,12.72
2022-11-01T13:10:54.403Z,12.71
2022-11-01T13:15:08.092Z,12.70
2022-11-01T13:19:19.336Z,12.72
2022-11-01T13:23:28.579Z,12.66
2022-11-01T13:27:41.348Z,12.63
2022-11-01T13:32:02.072Z,12.58
2022-11-01T13:36:11.968Z,12.58
2022-11-01T13:40:23.301Z,12.54
2022-11-01T13:44:29.754Z,12.52
2022-11-01T13:48:48.166Z,12.45
2022-11-01T13:52:56.909Z,12.44
2022-11-01T13:57:10.065Z,12.46
2022-11-01T14:01:32.836Z,12.46
2022-11-01T14:05:40.681Z,12.44
2022-11-01T14:09:46.016Z,12.46
2022-11-01T14:13:49.445Z,12.46
2022-11-01T14:18:10.258Z,12.46
2022-11-01T14:22:29.210Z,12.40
2022-11-01T14:26:51.006Z,12.40
2022-11-01T14:30:54.917Z,12.39
2022-11-01T14:35:03.072Z,12.40
2022-11-01T14:39:16.390Z,12.36
2022-11-01T14:43:24.209Z,12.35
2022-11-01T14:47:35.591Z,12.30
2022-11-01T14:51:45.951Z,12.28
2022-11-01T14:55:51.029Z,12.29
2022-11-01T14:59:54.440Z,12.26
2022-11-01T15:03:58.713Z,12.20
2022-11-01T15:08:02.230Z,12.19
2022-11-01T15:12:10.618Z,12.11
2022-11-01T15:16:17.065Z,12.09
2022-11-01T15:20:22.285Z,12.03
2022-11-01T15:24:27.144Z,11.99
2022-11-01T15:28:37.167Z,11.98
2022-11-01T15:32:40.148Z,11.95
2022-11-01T15:36:43.329Z,11.91
2022-11-01T15:40:46.936Z,11.91
2022-11-01T15:44:51.613Z,11.88
2022-11-01T15:48:57.777Z,11.82
2022-11-01T15:53:04.406Z,11.78
2022-11-01T15:57:15.868Z,11.75
2022-11-01T16:01:23.649Z,11.71
2022-11-01T16:05:31.141Z,11.67
2022-11-01T16:09:39.666Z,11.65
2022-11-01T16:13:50.320Z,11.61
2022-11-01T16:17:57.439Z,11.59
2022-11-01T16:22:03.522Z,11.54
2022-11-01T16:26:08.247Z,11.50
2022-11-01T16:30:36.646Z,11.45
2022-11-01T16:34:41.178Z,11.41
2022-11-01T16:38:45.649Z,11.40
2022-11-01T16:42:49.700Z,11.38
2022-11-01T16:46:54.743Z,11.38
2022-11-01T16:51:00.717Z,11.39
2022-11-01T16:55:03.765Z,11.40
2022-11-01T16:59:08.736Z,11.39
2022-11-01T17:03:13.771Z,11.39
2022-11-01T17:07:18.674Z,11.37
2022-11-01T17:11:22.551Z,11.32
2022-11-01T17:15:27.284Z,11.27
2022-11-01T17:19:33.352Z,11.25
2022-11-01T17:23:38.468Z,11.23
2022-11-01T17:27:41.503Z,11.21
2022-11-01T17:31:44.879Z,11.18
2022-11-01T17:35:48.397Z,11.12
2022-11-01T17:39:52.980Z,11.11
2022-11-01T17:43:56.122Z,11.08
2022-11-01T17:47:59.253Z,11.05
2022-11-01T17:52:04.360Z,11.03
2022-11-01T17:56:09.396Z,11.02
2022-11-01T18:00:13.458Z,10.99
2022-11-01T18:04:17.687Z,10.98
2022-11-01T18:08:26.173Z,10.97
2022-11-01T18:12:39.064Z,10.97
2022-11-01T18:16:48.477Z,10.96
2022-11-01T18:21:03.845Z,10.95
2022-11-01T18:25:21.968Z,10.95
2022-11-01T18:29:26.457Z,10.96
2022-11-01T18:33:35.668Z,10.95
2022-11-01T18:37:45.842Z,10.93
2022-11-01T18:41:50.541Z,10.92
2022-11-01T18:46:23.452Z,10.94
2022-11-01T18:50:23.560Z,10.95
2022-11-01T18:54:30.504Z,10.94
2022-11-01T18:58:35.822Z,10.96
2022-11-01T19:02:41.114Z,10.97
2022-11-01T19:06:44.627Z,10.97
2022-11-01T19:10:47.628Z,10.97
2022-11-01T19:14:55.569Z,10.96
2022-11-01T19:19:01.025Z,10.91
2022-11-01T19:23:10.468Z,10.88
2022-11-01T19:27:17.419Z,10.85
2022-11-01T19:31:30.535Z,10.82
2022-11-01T19:35:35.009Z,10.82
2022-11-01T19:39:41.678Z,10.81
2022-11-01T19:43:45.459Z,10.79
2022-11-01T19:47:51.136Z,10.79
2022-11-01T19:52:18.948Z,10.76
2022-11-01T19:56:23.913Z,10.78
2022-11-01T20:00:29.431Z,10.77
2022-11-01T20:04:32.993Z,10.72
2022-11-01T20:08:37.618Z,10.70
2022-11-01T20:12:44.611Z,10.68
2022-11-01T20:16:48.397Z,10.68
2022-11-01T20:20:52.937Z,10.69
2022-11-01T20:24:57.458Z,10.68
2022-11-01T20:29:00.608Z,10.67
2022-11-01T20:33:03.992Z,10.67
2022-11-01T20:37:27.538Z,10.66
2022-11-01T20:41:32.780Z,10.63
2022-11-01T20:45:35.951Z,10.66
2022-11-01T20:49:38.945Z,10.65
2022-11-01T20:53:42.602Z,10.66
2022-11-01T20:57:47.270Z,10.64
2022-11-01T21:01:50.583Z,10.64
2022-11-01T21:05:53.936Z,10.61
2022-11-01T21:09:57.165Z,10.61
2022-11-01T21:14:01.918Z,10.63
2022-11-01T21:18:39.733Z,10.60
2022-11-01T21:22:42.757Z,10.61
2022-11-01T21:26:45.936Z,10.61
2022-11-01T21:30:50.514Z,10.60
2022-11-01T21:34:54.941Z,10.62
2022-11-01T21:38:59.780Z,10.63
2022-11-01T21:43:03.661Z,10.66
2022-11-01T21:47:19.313Z,10.67
2022-11-01T21:51:22.454Z,10.67
2022-11-01T21:55:25.485Z,10.68
2022-11-01T21:59:28.955Z,10.68
2022-11-01T22:03:33.326Z,10.67
2022-11-01T22:07:36.839Z,10.66
2022-11-01T22:11:39.908Z,10.68
2022-11-01T22:15:42.943Z,10.69
2022-11-01T22:19:47.302Z,10.70
2022-11-01T22:23:50.514Z,10.68
2022-11-01T22:27:53.505Z,10.67
2022-11-01T22:31:56.525Z,10.68
2022-11-01T22:36:01.115Z,10.69
2022-11-01T22:40:11.959Z,10.69
2022-11-01T22:44:17.774Z,10.68
2022-11-01T22:48:24.594Z,10.68
2022-11-01T22:52:36.383Z,10.68
2022-11-01T22:56:39.545Z,10.70
2022-11-01T23:00:42.497Z,10.72
2022-11-01T23:04:45.500Z,10.73
2022-11-01T23:08:49.943Z,10.75
2022-11-01T23:13:14.882Z,10.77
2022-11-01T23:17:23.041Z,10.76
2022-11-01T23:21:27.886Z,10.70
2022-11-01T23:25:33.805Z,10.72
2022-11-01T23:29:37.000Z,10.69
2022-11-01T23:33:42.265Z,10.69
2022-11-01T23:37:45.453Z,10.71
2022-11-01T23:41:51.897Z,10.69
2022-11-01T23:45:55.293Z,10.69
2022-11-01T23:50:03.896Z,10.69
2022-11-01T23:54:07.442Z,10.70
2022-11-01T23:58:16.427Z,10.70
